Time;durP1;ratioP1;P1;durP2;ratioP2;P2;SDS_P1;SDS_P2;PMS_P1;PMS_P2;Temp;Humidity;BMP_temperature;BMP_pressure;BME280_temperature;BME280_humidity;BME280_pressure;Samples;Min_cycle;Max_cycle;Signal;HPM_P1;HPM_P2
2024/02/18 00:01:48;;;;;;;4.55;1.77;;;;;;;18.98;48.41;103079.75;4996820;28;20034;-69
2024/02/18 00:04:13;;;;;;;3.47;1.20;;;;;;;19.08;48.52;103082.81;4997470;28;20121;-71
2024/02/18 00:06:39;;;;;;;3.72;1.20;;;;;;;19.06;48.49;103084.69;4998352;28;20033;-71
2024/02/18 00:09:05;;;;;;;4.07;1.35;;;;;;;18.89;48.55;103055.59;4999319;28;20099;-69
2024/02/18 00:11:30;;;;;;;6.22;1.60;;;;;;;18.90;48.64;103060.81;4998572;28;20034;-69
2024/02/18 00:13:56;;;;;;;4.78;1.83;;;;;;;18.81;48.70;103050.66;4998124;28;20108;-69
2024/02/18 00:16:22;;;;;;;4.27;1.37;;;;;;;18.91;48.46;103066.94;4999447;28;20050;-70
2024/02/18 00:18:47;;;;;;;4.18;1.60;;;;;;;18.88;48.46;103059.16;4999548;28;20342;-70
2024/02/18 00:21:17;;;;;;;3.95;1.40;;;;;;;18.84;48.34;103056.66;4998521;28;20113;-71
2024/02/18 00:23:42;;;;;;;4.40;1.48;;;;;;;18.99;48.41;103084.13;4996162;28;20799;-70
2024/02/18 00:26:10;;;;;;;5.97;1.50;;;;;;;18.93;48.36;103072.97;4999219;28;20120;-70
2024/02/18 00:28:36;;;;;;;4.72;1.27;;;;;;;18.76;48.46;103048.22;4997941;28;20068;-69
2024/02/18 00:31:01;;;;;;;5.60;1.60;;;;;;;18.83;48.21;103046.13;4999192;28;20617;-69
2024/02/18 00:33:27;;;;;;;4.28;1.30;;;;;;;18.85;48.20;103055.75;4999050;28;20271;-69
2024/02/18 00:35:52;;;;;;;4.35;1.38;;;;;;;18.90;48.43;103059.94;4997829;28;20034;-71
2024/02/18 00:38:17;;;;;;;3.50;1.48;;;;;;;18.95;48.15;103076.44;4981598;28;20034;-69
2024/02/18 00:40:43;;;;;;;5.03;1.40;;;;;;;18.91;48.24;103066.94;4998382;28;20029;-70
2024/02/18 00:43:08;;;;;;;3.85;1.33;;;;;;;18.92;48.02;103073.94;4997176;28;20318;-69
2024/02/18 00:45:33;;;;;;;4.95;1.50;;;;;;;18.87;48.26;103063.59;4998882;28;20041;-70
2024/02/18 00:47:58;;;;;;;3.90;1.48;;;;;;;18.87;48.01;103054.78;4981432;28;20038;-69
2024/02/18 00:50:24;;;;;;;3.20;1.33;;;;;;;18.84;48.00;103055.81;4997777;28;20030;-69
2024/02/18 00:52:49;;;;;;;4.85;1.60;;;;;;;18.75;48.29;103035.09;4998042;28;20100;-69
2024/02/18 00:55:17;;;;;;;4.40;1.70;;;;;;;18.77;48.18;103039.38;4981420;28;20474;-70
2024/02/18 00:57:43;;;;;;;4.20;1.63;;;;;;;18.74;48.07;103034.25;4998463;28;20038;-69
2024/02/18 01:00:10;;;;;;;4.45;1.88;;;;;;;18.74;48.09;103036.91;4980622;28;20030;-70
2024/02/18 01:02:35;;;;;;;5.28;1.45;;;;;;;18.79;47.99;103034.03;4996893;28;20054;-70
2024/02/18 01:05:00;;;;;;;4.00;1.67;;;;;;;18.79;48.09;103036.69;4997396;28;20570;-70
2024/02/18 01:07:26;;;;;;;4.88;1.50;;;;;;;18.82;48.09;103041.81;4997226;28;20045;-71
2024/02/18 01:09:51;;;;;;;4.88;1.73;;;;;;;18.82;47.89;103044.44;4998734;28;20550;-69
2024/02/18 01:12:17;;;;;;;5.50;1.67;;;;;;;18.74;47.79;103022.81;4997747;28;20462;-70
2024/02/18 01:14:46;;;;;;;4.45;1.92;;;;;;;18.70;47.86;103022.13;4998414;28;20034;-71
2024/02/18 01:17:11;;;;;;;5.45;1.85;;;;;;;18.69;48.08;103028.31;4998183;28;20144;-69
2024/02/18 01:19:36;;;;;;;5.30;1.83;;;;;;;18.73;47.64;103037.81;4998798;28;21226;-69
2024/02/18 01:22:03;;;;;;;6.20;2.13;;;;;;;18.64;47.90;103017.13;4998614;28;20464;-69
2024/02/18 01:24:28;;;;;;;4.43;1.85;;;;;;;18.80;47.87;103039.25;4998240;28;20041;-69
2024/02/18 01:26:54;;;;;;;5.60;1.90;;;;;;;18.70;47.63;103018.63;4996768;28;20034;-69
2024/02/18 01:29:19;;;;;;;5.15;2.10;;;;;;;18.66;47.78;103017.94;4999086;28;20038;-73
2024/02/18 01:31:45;;;;;;;4.20;1.90;;;;;;;18.74;47.90;103026.34;4997195;28;20111;-68
2024/02/18 01:34:10;;;;;;;6.60;2.13;;;;;;;18.63;47.86;103007.53;4998683;28;20034;-69
2024/02/18 01:36:35;;;;;;;6.60;2.20;;;;;;;18.75;47.80;103022.75;4998412;28;20034;-69
2024/02/18 01:39:01;;;;;;;5.00;2.10;;;;;;;18.76;47.75;103021.81;4997582;28;20124;-68
2024/02/18 01:41:26;;;;;;;5.85;2.03;;;;;;;18.73;47.67;103019.31;4999112;28;20040;-68
2024/02/18 01:43:52;;;;;;;4.65;2.08;;;;;;;18.71;47.75;103015.91;4998280;28;20037;-69
2024/02/18 01:46:18;;;;;;;4.50;2.30;;;;;;;18.70;47.63;103008.91;5002259;28;20037;-68
2024/02/18 01:48:43;;;;;;;5.28;2.00;;;;;;;18.63;47.77;102992.53;5001076;28;20037;-70
2024/02/18 01:51:09;;;;;;;4.68;2.10;;;;;;;18.68;47.74;102994.94;5001813;28;20038;-68
2024/02/18 01:53:37;;;;;;;4.90;2.10;;;;;;;18.67;47.72;102996.72;5000455;28;20147;-69
2024/02/18 01:56:03;;;;;;;5.70;2.10;;;;;;;18.63;47.80;102987.25;5002327;28;20279;-70
2024/02/18 01:58:30;;;;;;;3.95;1.80;;;;;;;18.60;47.66;102978.63;4983965;28;20381;-69
2024/02/18 02:00:55;;;;;;;4.95;2.10;;;;;;;18.61;47.75;102972.38;5000464;28;20041;-69
2024/02/18 02:03:21;;;;;;;4.13;1.80;;;;;;;18.61;47.75;102977.66;5000551;28;20052;-70
2024/02/18 02:05:47;;;;;;;5.63;2.03;;;;;;;18.58;47.79;102981.34;5001569;28;20041;-69
2024/02/18 02:08:13;;;;;;;4.95;1.90;;;;;;;18.65;47.73;102989.81;5000800;28;20052;-71
2024/02/18 02:10:38;;;;;;;5.97;1.90;;;;;;;18.60;47.60;102987.38;4984736;28;20472;-69
2024/02/18 02:13:05;;;;;;;5.55;2.00;;;;;;;18.58;47.27;102972.53;5000602;28;20045;-69
2024/02/18 02:15:30;;;;;;;4.80;1.80;;;;;;;18.63;47.43;102981.13;4999481;28;20041;-69
2024/02/18 02:17:56;;;;;;;4.43;1.90;;;;;;;18.54;47.64;102973.63;5001343;28;20076;-69
2024/02/18 02:20:21;;;;;;;5.03;1.88;;;;;;;18.55;47.59;102978.84;5001009;28;20022;-69
2024/02/18 02:22:46;;;;;;;4.47;1.83;;;;;;;18.45;47.63;102957.34;5001069;28;20056;-69
2024/02/18 02:25:13;;;;;;;5.00;2.00;;;;;;;18.54;47.37;102966.56;5001758;28;20544;-71
2024/02/18 02:27:42;;;;;;;5.68;1.90;;;;;;;18.58;47.27;102976.06;4999719;28;20037;-71
2024/02/18 02:30:08;;;;;;;6.55;2.00;;;;;;;18.61;47.48;102975.03;5001126;28;20034;-69
2024/02/18 02:32:35;;;;;;;4.53;1.77;;;;;;;18.64;47.65;102982.81;5000415;28;20041;-69
2024/02/18 02:35:01;;;;;;;4.53;1.60;;;;;;;18.52;46.91;102954.34;5000140;28;20030;-70
2024/02/18 02:37:26;;;;;;;5.65;1.70;;;;;;;18.59;47.34;102964.53;5000663;28;20057;-70
2024/02/18 02:39:51;;;;;;;4.10;1.50;;;;;;;18.61;47.23;102964.47;4983168;28;20137;-69
2024/02/18 02:42:17;;;;;;;5.35;1.95;;;;;;;18.52;47.42;102951.72;5000140;28;20368;-70
2024/02/18 02:44:42;;;;;;;4.15;1.60;;;;;;;18.48;47.33;102948.38;5001104;28;20049;-69
2024/02/18 02:47:08;;;;;;;3.70;1.52;;;;;;;18.51;47.66;102950.03;5000491;28;20029;-68
2024/02/18 02:49:33;;;;;;;4.22;1.48;;;;;;;18.54;47.55;102957.78;5000130;28;20469;-69
2024/02/18 02:51:58;;;;;;;5.22;1.55;;;;;;;18.53;47.38;102956.91;4999699;28;20124;-69
2024/02/18 02:54:24;;;;;;;5.32;1.60;;;;;;;18.53;47.35;102959.56;5000796;28;20041;-69
2024/02/18 02:56:49;;;;;;;5.28;1.60;;;;;;;18.57;47.58;102957.66;4999032;28;20033;-69
2024/02/18 02:59:14;;;;;;;4.03;1.50;;;;;;;18.53;47.28;102948.16;5000414;28;20032;-69
2024/02/18 03:01:40;;;;;;;5.43;1.80;;;;;;;18.44;47.17;102923.94;4999903;28;20369;-70
2024/02/18 03:04:05;;;;;;;4.00;1.60;;;;;;;18.54;47.43;102947.22;4998854;28;20040;-70
2024/02/18 03:06:30;;;;;;;4.50;1.70;;;;;;;18.45;47.23;102932.69;4982830;28;20480;-68
2024/02/18 03:08:56;;;;;;;4.78;1.55;;;;;;;18.41;47.44;102924.06;4999784;28;20083;-70
2024/02/18 03:11:21;;;;;;;4.18;1.60;;;;;;;18.46;47.28;102927.34;5000005;28;20032;-69
2024/02/18 03:13:46;;;;;;;3.60;1.60;;;;;;;18.41;47.22;102915.31;4999834;28;20042;-70
2024/02/18 03:16:11;;;;;;;3.35;1.45;;;;;;;18.49;47.36;102932.47;4999425;28;20048;-69
2024/02/18 03:18:37;;;;;;;5.60;1.67;;;;;;;18.33;47.38;102907.78;4999494;28;20033;-70
2024/02/18 03:21:02;;;;;;;4.75;1.40;;;;;;;18.46;47.30;102918.56;4999772;28;20583;-69
2024/02/18 03:23:28;;;;;;;4.35;1.30;;;;;;;18.41;47.37;102913.50;5000853;28;20026;-70
2024/02/18 03:25:56;;;;;;;5.95;1.55;;;;;;;18.44;47.20;102916.00;4999025;28;20033;-69
2024/02/18 03:28:21;;;;;;;3.67;1.55;;;;;;;18.38;47.07;102902.25;4999539;28;20030;-71
2024/02/18 03:30:50;;;;;;;3.88;1.30;;;;;;;18.43;47.35;102908.16;4999428;28;20060;-69
2024/02/18 03:33:17;;;;;;;4.03;1.58;;;;;;;18.41;47.23;102897.69;5000528;28;20107;-70
2024/02/18 03:35:43;;;;;;;5.15;1.55;;;;;;;18.42;47.23;102891.47;4999494;28;20026;-69
2024/02/18 03:38:08;;;;;;;4.82;1.50;;;;;;;18.40;47.20;102884.56;4982004;28;20034;-69
2024/02/18 03:40:33;;;;;;;4.70;1.85;;;;;;;18.11;47.28;102842.84;4999635;28;20096;-68
2024/02/18 03:42:59;;;;;;;4.78;1.60;;;;;;;18.43;47.14;102890.53;4998984;28;20092;-69
2024/02/18 03:45:24;;;;;;;5.30;1.67;;;;;;;18.45;47.09;102886.03;4999595;28;20037;-68
2024/02/18 03:47:49;;;;;;;4.93;1.33;;;;;;;18.22;46.97;102846.75;5000070;28;20060;-69
2024/02/18 03:50:14;;;;;;;4.95;1.33;;;;;;;18.40;47.32;102880.13;4981747;28;20498;-68
2024/02/18 03:52:43;;;;;;;4.30;1.58;;;;;;;18.40;47.13;102874.00;4999221;28;20030;-68
2024/02/18 03:55:12;;;;;;;3.72;1.50;;;;;;;18.41;46.90;102871.28;5000138;28;20033;-68
2024/02/18 03:57:39;;;;;;;3.55;1.50;;;;;;;18.30;46.76;102847.22;5000379;28;20053;-69
2024/02/18 04:00:06;;;;;;;4.95;1.88;;;;;;;18.32;47.03;102845.34;4981022;28;20061;-69
2024/02/18 04:02:38;;;;;;;4.93;1.45;;;;;;;18.46;46.91;102871.03;4997662;28;20572;-69
2024/02/18 04:05:07;;;;;;;3.33;1.17;;;;;;;18.42;46.82;102864.19;4998145;28;20093;-71
2024/02/18 04:07:33;;;;;;;4.63;1.40;;;;;;;18.43;46.90;102855.34;4997548;28;20037;-70
2024/02/18 04:09:59;;;;;;;3.88;1.50;;;;;;;18.29;46.77;102834.94;4998132;28;20045;-69
2024/02/18 04:12:24;;;;;;;4.60;1.50;;;;;;;18.43;46.96;102855.34;4997980;28;20030;-70
2024/02/18 04:14:50;;;;;;;4.78;1.40;;;;;;;18.47;47.31;102856.94;4997433;28;20535;-70
2024/02/18 04:17:15;;;;;;;3.50;1.23;;;;;;;18.41;46.90;102834.31;4997204;28;20514;-69
2024/02/18 04:19:40;;;;;;;3.55;1.40;;;;;;;18.42;47.01;102837.81;5000321;28;20022;-70
2024/02/18 04:22:06;;;;;;;4.18;1.42;;;;;;;18.34;46.85;102826.78;4996392;28;20455;-69
2024/02/18 04:24:32;;;;;;;4.10;1.35;;;;;;;18.29;47.06;102817.34;4999277;28;20036;-70
2024/02/18 04:26:57;;;;;;;4.80;1.27;;;;;;;18.34;47.01;102817.09;4997461;28;20030;-70
2024/02/18 04:29:22;;;;;;;3.72;1.42;;;;;;;18.45;47.02;102835.00;4998166;28;20406;-70
2024/02/18 04:31:47;;;;;;;3.05;1.13;;;;;;;18.33;47.01;102814.53;4998893;28;20471;-70
2024/02/18 04:34:13;;;;;;;4.95;1.30;;;;;;;18.32;47.16;102813.66;4998099;28;20153;-69
2024/02/18 04:36:38;;;;;;;4.80;1.10;;;;;;;18.33;47.06;102812.75;4997293;28;20037;-70
2024/02/18 04:39:05;;;;;;;4.32;1.33;;;;;;;18.37;47.14;102811.63;4997371;28;20040;-69
2024/02/18 04:41:31;;;;;;;4.13;1.20;;;;;;;18.29;46.94;102801.50;4997309;28;20480;-69
2024/02/18 04:43:56;;;;;;;2.83;1.15;;;;;;;18.35;46.94;102802.94;4997958;28;20084;-70
2024/02/18 04:46:22;;;;;;;3.28;1.50;;;;;;;18.32;46.88;102800.47;4999346;28;20506;-69
2024/02/18 04:48:47;;;;;;;4.30;1.40;;;;;;;18.40;46.90;102814.13;4997505;28;20065;-70
2024/02/18 04:51:12;;;;;;;3.17;1.30;;;;;;;18.29;47.10;102793.56;4998311;28;20104;-70
2024/02/18 04:53:37;;;;;;;3.58;1.27;;;;;;;18.25;47.05;102780.63;4997791;28;20041;-70
2024/02/18 04:56:03;;;;;;;4.47;1.10;;;;;;;18.34;47.12;102795.97;4996444;28;20059;-69
2024/02/18 04:58:28;;;;;;;4.85;1.50;;;;;;;18.40;47.12;102793.00;4998813;28;20030;-71
2024/02/18 05:00:54;;;;;;;4.15;1.70;;;;;;;18.26;47.24;102766.47;4998994;28;20475;-69
2024/02/18 05:03:21;;;;;;;3.22;1.20;;;;;;;18.38;47.24;102784.31;4995274;28;20034;-71
2024/02/18 05:05:46;;;;;;;3.38;1.15;;;;;;;18.29;47.16;102767.19;4998100;28;20437;-69
2024/02/18 05:08:11;;;;;;;2.88;1.17;;;;;;;18.20;47.23;102750.94;4998196;28;21147;-69
2024/02/18 05:10:37;;;;;;;4.15;1.15;;;;;;;18.30;47.05;102762.75;4996324;28;20034;-70
2024/02/18 05:13:02;;;;;;;4.88;1.48;;;;;;;18.32;47.00;102758.22;4997469;28;20337;-70
2024/02/18 05:15:28;;;;;;;3.83;1.30;;;;;;;18.22;47.06;102738.53;4998628;28;20517;-70
2024/02/18 05:17:53;;;;;;;4.88;1.58;;;;;;;18.24;46.92;102737.50;4997071;28;20072;-71
2024/02/18 05:20:18;;;;;;;5.25;1.60;;;;;;;18.33;47.15;102748.56;5002965;28;20107;-70
2024/02/18 05:22:44;;;;;;;4.13;1.30;;;;;;;18.31;47.03;102752.09;5001711;28;20038;-71
2024/02/18 05:25:09;;;;;;;3.85;1.10;;;;;;;18.28;47.26;102741.72;5000288;28;20479;-71
2024/02/18 05:27:35;;;;;;;5.20;1.30;;;;;;;18.25;47.17;102727.81;5001503;28;20034;-70
2024/02/18 05:30:00;;;;;;;3.38;1.27;;;;;;;18.21;47.02;102721.00;5000616;28;20057;-71
2024/02/18 05:32:25;;;;;;;3.58;1.20;;;;;;;18.13;47.22;102710.81;5001100;28;20471;-70
2024/02/18 05:34:50;;;;;;;3.22;1.10;;;;;;;18.26;46.93;102729.50;5002232;28;21245;-72
2024/02/18 05:37:16;;;;;;;3.60;1.20;;;;;;;18.19;47.16;102713.16;5000915;28;20044;-70
2024/02/18 05:39:41;;;;;;;4.65;1.60;;;;;;;18.23;47.19;102712.06;5001315;28;20438;-71
2024/02/18 05:42:06;;;;;;;3.45;1.20;;;;;;;18.28;46.98;102723.22;5002215;28;20488;-70
2024/02/18 05:44:32;;;;;;;4.88;1.40;;;;;;;18.27;47.18;102713.59;4984018;28;20029;-71
2024/02/18 05:46:58;;;;;;;4.72;1.35;;;;;;;18.27;47.26;102724.16;5001624;28;20037;-68
2024/02/18 05:49:23;;;;;;;3.83;1.20;;;;;;;18.21;47.20;102698.09;5001269;28;20538;-70
2024/02/18 05:51:53;;;;;;;2.95;1.17;;;;;;;18.31;47.20;102714.31;5000743;28;20074;-70
2024/02/18 05:54:23;;;;;;;4.47;1.35;;;;;;;18.21;47.18;102694.59;5001486;28;20060;-70
2024/02/18 05:56:49;;;;;;;3.75;1.30;;;;;;;18.24;46.83;102705.00;5001554;28;20124;-70
2024/02/18 05:59:14;;;;;;;5.13;1.70;;;;;;;18.21;47.15;102689.31;4983333;28;20527;-71
2024/02/18 06:01:41;;;;;;;4.00;1.45;;;;;;;18.19;47.29;102681.47;5001039;28;20045;-69
2024/02/18 06:04:08;;;;;;;3.90;1.20;;;;;;;18.26;47.38;102690.81;5000642;28;20037;-70
2024/02/18 06:06:33;;;;;;;3.75;1.40;;;;;;;18.08;47.15;102657.44;5000265;28;20116;-71
2024/02/18 06:08:58;;;;;;;4.45;1.30;;;;;;;18.18;47.16;102674.50;5000731;28;20103;-70
2024/02/18 06:11:24;;;;;;;4.07;1.63;;;;;;;18.26;47.23;102677.59;4984398;28;20423;-70
2024/02/18 06:13:49;;;;;;;4.13;1.50;;;;;;;18.28;47.01;102675.72;4983618;28;20192;-70
2024/02/18 06:16:14;;;;;;;4.13;1.20;;;;;;;18.23;47.15;102664.56;5001089;28;20484;-70
2024/02/18 06:18:40;;;;;;;4.13;1.20;;;;;;;18.26;47.22;102668.81;5001098;28;20037;-70
2024/02/18 06:21:05;;;;;;;4.40;1.45;;;;;;;18.28;47.22;102678.38;5000057;28;20160;-70
2024/02/18 06:23:30;;;;;;;3.85;1.08;;;;;;;18.22;47.40;102670.78;4999890;28;20132;-69
2024/02/18 06:25:56;;;;;;;3.00;1.15;;;;;;;18.16;47.39;102649.97;5000986;28;20033;-71
2024/02/18 06:28:22;;;;;;;3.75;1.00;;;;;;;18.26;47.66;102650.34;5000120;28;20068;-70
2024/02/18 06:30:47;;;;;;;3.53;1.23;;;;;;;18.27;47.60;102654.69;4999706;28;20805;-70
2024/02/18 06:33:12;;;;;;;3.45;1.23;;;;;;;18.30;47.36;102651.88;5001063;28;20037;-70
2024/02/18 06:35:38;;;;;;;2.35;1.00;;;;;;;18.36;47.63;102650.69;4983096;28;20076;-70
2024/02/18 06:38:03;;;;;;;5.50;1.25;;;;;;;18.23;47.41;102629.38;5001261;28;20128;-72
2024/02/18 06:40:28;;;;;;;4.15;1.20;;;;;;;18.25;47.56;102620.47;5001075;28;20038;-71
2024/02/18 06:42:54;;;;;;;4.30;1.15;;;;;;;18.19;47.54;102609.38;5000065;28;20026;-71
2024/02/18 06:45:19;;;;;;;3.85;1.30;;;;;;;18.07;47.78;102587.13;5001263;28;20120;-71
2024/02/18 06:47:44;;;;;;;2.83;1.17;;;;;;;18.33;47.60;102624.50;5000490;28;20117;-70
2024/02/18 06:50:10;;;;;;;3.78;1.35;;;;;;;18.44;47.52;102632.69;5000663;28;20025;-71
2024/02/18 06:52:35;;;;;;;3.35;1.00;;;;;;;18.37;47.74;102610.16;5000564;28;20395;-70
2024/02/18 06:55:03;;;;;;;2.35;1.05;;;;;;;18.49;47.49;102625.34;4998214;28;20036;-69
2024/02/18 06:57:28;;;;;;;3.45;1.00;;;;;;;18.48;47.65;102613.06;4999894;28;20057;-70
2024/02/18 06:59:55;;;;;;;2.67;0.93;;;;;;;18.52;47.40;102619.03;5000046;28;20033;-70
2024/02/18 07:02:21;;;;;;;3.20;1.10;;;;;;;18.43;47.68;102594.84;4997805;28;20042;-69
2024/02/18 07:04:46;;;;;;;2.63;0.90;;;;;;;18.44;47.55;102598.34;4999776;28;20041;-70
2024/02/18 07:07:12;;;;;;;2.47;0.80;;;;;;;18.46;47.50;102599.97;5000162;28;20026;-71
2024/02/18 07:09:37;;;;;;;2.58;0.90;;;;;;;18.54;47.34;102606.63;4982410;28;20834;-70
2024/02/18 07:12:04;;;;;;;2.90;0.95;;;;;;;18.34;47.42;102571.63;4999018;28;20049;-71
2024/02/18 07:14:29;;;;;;;3.85;1.10;;;;;;;18.57;47.57;102603.81;4982803;28;20034;-71
2024/02/18 07:16:54;;;;;;;5.30;1.30;;;;;;;18.47;47.60;102582.34;4998727;28;20127;-70
2024/02/18 07:19:20;;;;;;;3.75;1.10;;;;;;;18.45;47.57;102578.91;4999119;28;20145;-70
2024/02/18 07:21:46;;;;;;;3.05;1.20;;;;;;;18.51;47.58;102581.22;4999876;28;20494;-70
2024/02/18 07:24:11;;;;;;;2.28;0.85;;;;;;;18.59;47.42;102600.13;4999445;28;20040;-70
2024/02/18 07:26:37;;;;;;;2.30;0.77;;;;;;;18.49;47.28;102575.19;5000722;28;20537;-70
2024/02/18 07:29:03;;;;;;;3.17;1.20;;;;;;;18.58;47.40;102594.94;4999003;28;20475;-69
2024/02/18 07:31:30;;;;;;;3.22;0.93;;;;;;;18.52;47.50;102576.78;5000065;28;20034;-68
2024/02/18 07:33:55;;;;;;;3.95;0.90;;;;;;;18.55;47.43;102584.53;4999780;28;20073;-69
2024/02/18 07:36:21;;;;;;;1.90;0.85;;;;;;;18.59;47.21;102581.66;4996442;28;20129;-70
2024/02/18 07:38:46;;;;;;;3.00;1.00;;;;;;;18.44;47.20;102562.25;4997980;28;21287;-69
2024/02/18 07:41:11;;;;;;;3.58;1.00;;;;;;;18.61;47.05;102589.47;4999255;28;20042;-70
2024/02/18 07:43:37;;;;;;;3.47;1.20;;;;;;;18.58;47.29;102572.03;4999065;28;20033;-69
2024/02/18 07:46:02;;;;;;;3.15;1.00;;;;;;;18.58;47.24;102565.88;4999255;28;20076;-70
2024/02/18 07:48:27;;;;;;;3.53;1.20;;;;;;;18.46;47.11;102552.44;5000553;28;20037;-68
2024/02/18 07:50:52;;;;;;;3.15;1.00;;;;;;;18.51;47.08;102554.81;4981709;28;20676;-70
2024/02/18 07:53:18;;;;;;;2.08;1.10;;;;;;;18.60;46.98;102574.59;4982669;28;20046;-68
2024/02/18 07:55:43;;;;;;;2.60;1.00;;;;;;;18.57;46.84;102556.28;5000297;28;20277;-68
2024/02/18 07:58:09;;;;;;;3.17;1.05;;;;;;;18.46;46.95;102539.25;5000120;28;20597;-69
2024/02/18 08:00:34;;;;;;;3.65;0.93;;;;;;;18.42;47.03;102536.84;4998591;28;20026;-67
2024/02/18 08:03:00;;;;;;;5.05;1.30;;;;;;;18.51;47.02;102538.97;4980976;28;20044;-68
2024/02/18 08:05:25;;;;;;;3.97;1.00;;;;;;;18.49;47.06;102527.66;4999263;28;20116;-68
2024/02/18 08:07:50;;;;;;;4.13;1.13;;;;;;;18.51;47.17;102528.41;4999035;28;20033;-68
2024/02/18 08:10:16;;;;;;;3.80;1.35;;;;;;;18.47;47.04;102525.13;4999721;28;20300;-68
2024/02/18 08:12:41;;;;;;;3.10;1.00;;;;;;;18.57;47.57;102537.81;4998938;28;20040;-68
2024/02/18 08:15:07;;;;;;;3.20;1.00;;;;;;;18.47;47.59;102517.19;4998578;28;20030;-68
2024/02/18 08:17:34;;;;;;;3.95;1.05;;;;;;;18.59;47.62;102544.69;4999553;28;20050;-70
2024/02/18 08:19:59;;;;;;;4.20;1.27;;;;;;;18.43;47.43;102507.72;4999235;28;20371;-69
2024/02/18 08:22:25;;;;;;;3.50;1.23;;;;;;;18.51;47.68;102517.03;5000529;28;20041;-69
2024/02/18 08:24:50;;;;;;;2.65;1.05;;;;;;;18.47;47.63;102506.63;4999587;28;20700;-69
2024/02/18 08:27:15;;;;;;;3.55;0.95;;;;;;;18.54;47.56;102524.78;4998877;28;20467;-69
2024/02/18 08:29:44;;;;;;;3.47;1.15;;;;;;;18.48;47.67;102502.19;4998061;28;20034;-69
2024/02/18 08:32:09;;;;;;;3.85;1.13;;;;;;;18.60;47.60;102519.16;4999178;28;20030;-69
2024/02/18 08:34:34;;;;;;;2.75;0.88;;;;;;;18.49;47.75;102499.47;4998312;28;20037;-69
2024/02/18 08:37:00;;;;;;;5.07;1.17;;;;;;;18.53;47.84;102499.28;4998693;28;20034;-69
2024/02/18 08:39:25;;;;;;;3.20;0.85;;;;;;;18.58;47.94;102506.03;4994617;28;20041;-70
2024/02/18 08:41:50;;;;;;;5.05;1.02;;;;;;;18.52;48.10;102481.75;4997912;28;20466;-69
2024/02/18 08:44:16;;;;;;;3.78;1.10;;;;;;;18.58;47.89;102499.88;4999066;28;20041;-70
2024/02/18 08:46:42;;;;;;;3.53;1.10;;;;;;;18.56;48.06;102499.97;4999194;28;20537;-70
2024/02/18 08:49:08;;;;;;;3.38;0.93;;;;;;;18.54;47.97;102493.94;4998645;28;20042;-69
2024/02/18 08:51:33;;;;;;;3.83;1.00;;;;;;;18.51;48.10;102472.97;4998918;28;20088;-70
2024/02/18 08:53:59;;;;;;;4.10;1.05;;;;;;;18.59;48.04;102491.03;4997767;28;20038;-70
2024/02/18 08:56:24;;;;;;;4.10;1.15;;;;;;;18.46;48.22;102465.31;4998886;28;20100;-70
2024/02/18 08:58:50;;;;;;;3.75;1.00;;;;;;;18.61;48.10;102481.22;4998047;28;20041;-71
2024/02/18 09:01:18;;;;;;;3.75;1.13;;;;;;;18.56;48.32;102478.84;4981025;28;20034;-70
2024/02/18 09:03:43;;;;;;;3.70;1.10;;;;;;;18.64;48.31;102492.47;4996793;28;20100;-71
2024/02/18 09:06:09;;;;;;;3.37;1.00;;;;;;;18.43;48.40;102452.28;4998873;28;20038;-68
2024/02/18 09:08:35;;;;;;;2.58;1.05;;;;;;;18.55;48.26;102463.97;4997803;28;20281;-70
2024/02/18 09:11:00;;;;;;;3.78;0.90;;;;;;;18.52;48.54;102453.56;4998865;28;20511;-69
2024/02/18 09:13:26;;;;;;;6.90;1.60;;;;;;;18.56;48.50;102454.22;4989042;28;20038;-72
2024/02/18 09:15:51;;;;;;;4.57;1.00;;;;;;;18.49;48.48;102440.53;4995906;28;20053;-75
2024/02/18 09:18:17;;;;;;;3.92;1.35;;;;;;;18.53;48.43;102433.28;4980075;28;20037;-73
2024/02/18 09:20:43;;;;;;;4.00;1.40;;;;;;;18.68;48.53;102461.47;4997152;28;20060;-72
2024/02/18 09:23:08;;;;;;;3.35;1.05;;;;;;;18.68;48.47;102461.47;4996635;28;20030;-72
2024/02/18 09:25:34;;;;;;;2.40;0.98;;;;;;;18.67;48.54;102450.06;4996610;28;20506;-72
2024/02/18 09:27:59;;;;;;;4.57;1.38;;;;;;;18.65;48.25;102443.16;4997234;28;20038;-73
2024/02/18 09:30:25;;;;;;;3.55;1.00;;;;;;;18.51;48.44;102417.53;4996999;28;20388;-75
2024/02/18 09:32:50;;;;;;;3.20;1.10;;;;;;;18.67;48.10;102446.53;4994480;28;20042;-71
2024/02/18 09:35:17;;;;;;;4.63;1.20;;;;;;;18.57;48.17;102421.63;4997508;28;20076;-71
2024/02/18 09:37:42;;;;;;;3.38;1.45;;;;;;;18.67;48.29;102434.22;4995626;28;20725;-72
2024/02/18 09:40:08;;;;;;;5.15;1.08;;;;;;;18.68;48.23;102440.34;4996838;28;20038;-72
2024/02/18 09:42:45;;;;;;;3.70;1.30;;;;;;;18.68;48.33;102435.88;4998045;28;20202;-69
2024/02/18 09:45:16;;;;;;;3.40;1.02;;;;;;;18.52;47.94;102403.41;4997699;28;20221;-69
2024/02/18 09:47:43;;;;;;;6.35;1.33;;;;;;;18.56;48.25;102406.72;4997831;28;20144;-70
2024/02/18 09:50:15;;;;;;;4.00;1.00;;;;;;;18.56;48.25;102409.34;4997895;28;20033;-70
2024/02/18 09:52:41;;;;;;;4.05;1.00;;;;;;;18.59;48.08;102403.91;4997932;28;20049;-69
2024/02/18 09:55:08;;;;;;;3.35;1.25;;;;;;;18.63;48.21;102405.44;4997496;28;20040;-70
2024/02/18 09:57:33;;;;;;;6.25;0.95;;;;;;;18.57;48.17;102387.31;4997456;28;20313;-72
2024/02/18 09:59:58;;;;;;;2.20;0.90;;;;;;;18.50;48.00;102368.34;4996611;28;20069;-70
2024/02/18 10:02:25;;;;;;;3.60;1.10;;;;;;;18.66;48.27;102397.31;4978343;28;20041;-70
2024/02/18 10:04:50;;;;;;;4.05;0.98;;;;;;;18.57;48.19;102376.75;4997840;28;20388;-70
2024/02/18 10:07:16;;;;;;;4.05;1.08;;;;;;;18.61;48.10;102379.13;5000441;28;20470;-70
2024/02/18 10:09:43;;;;;;;3.40;1.00;;;;;;;18.66;48.03;102382.31;5000826;28;20113;-69
2024/02/18 10:12:10;;;;;;;3.97;0.90;;;;;;;18.58;47.97;102358.16;4999992;28;20037;-69
2024/02/18 10:14:36;;;;;;;3.08;0.93;;;;;;;18.58;48.08;102354.66;5000123;28;20049;-72
2024/02/18 10:17:01;;;;;;;3.53;0.90;;;;;;;18.59;48.07;102351.94;5000700;28;20054;-70
2024/02/18 10:19:27;;;;;;;3.83;1.05;;;;;;;18.63;48.00;102355.25;5000347;28;20509;-70
2024/02/18 10:21:53;;;;;;;4.03;1.08;;;;;;;18.73;48.05;102359.03;4999359;28;20038;-72
2024/02/18 10:24:23;;;;;;;3.08;0.80;;;;;;;18.58;48.26;102329.13;4977702;28;20097;-74
2024/02/18 10:26:49;;;;;;;4.22;1.05;;;;;;;18.78;47.96;102330.53;4998197;28;20493;-74
2024/02/18 10:29:15;;;;;;;2.47;0.95;;;;;;;18.74;48.20;102330.81;5001586;28;20033;-71
2024/02/18 10:31:40;;;;;;;3.92;1.10;;;;;;;18.68;48.33;102319.69;5000422;28;20037;-71
2024/02/18 10:34:06;;;;;;;4.57;1.30;;;;;;;18.66;48.21;102318.94;4999960;28;20033;-72
2024/02/18 10:36:33;;;;;;;3.80;0.85;;;;;;;18.72;48.48;102327.44;5001362;28;20034;-71
2024/02/18 10:39:03;;;;;;;6.43;1.20;;;;;;;18.77;48.48;102346.47;4983002;28;20103;-70
2024/02/18 10:41:55;;;;;;;2.95;0.80;;;;;;;18.79;48.31;102347.25;4998157;28;20034;-71
2024/02/18 10:44:21;;;;;;;2.88;1.00;;;;;;;18.57;48.41;102301.00;4991427;28;20046;-70
2024/02/18 10:46:48;;;;;;;3.25;0.82;;;;;;;18.65;48.08;102313.75;4940256;28;20376;-70
2024/02/18 10:49:18;;;;;;;3.33;0.90;;;;;;;18.79;48.42;102334.91;5000150;28;20519;-73
2024/02/18 10:51:53;;;;;;;2.58;0.80;;;;;;;18.65;48.37;102293.47;5000591;28;20132;-73
2024/02/18 10:55:26;;;;;;;3.28;1.08;;;;;;;18.79;48.34;102318.22;4999063;28;20038;-73
2024/02/18 10:58:00;;;;;;;2.67;0.77;;;;;;;18.65;48.47;102282.91;4845583;29;20040;-73
2024/02/18 11:00:27;;;;;;;4.95;0.95;;;;;;;18.63;48.22;102276.88;4881866;29;20040;-72
2024/02/18 11:02:57;;;;;;;4.05;1.15;;;;;;;18.77;48.56;102299.81;4933078;28;20114;-72
2024/02/18 11:05:23;;;;;;;2.75;0.90;;;;;;;18.67;48.64;102270.47;4999428;28;20036;-72
2024/02/18 11:07:49;;;;;;;4.18;1.10;;;;;;;18.65;48.47;102247.75;4998220;28;20125;-72
2024/02/18 11:10:15;;;;;;;2.85;0.80;;;;;;;18.67;48.27;102249.34;4999150;28;20116;-70
2024/02/18 11:12:44;;;;;;;4.47;1.10;;;;;;;18.73;48.49;102263.97;4981840;28;20053;-71
2024/02/18 11:15:11;;;;;;;4.75;0.90;;;;;;;18.70;48.59;102253.59;4998418;28;20137;-73
2024/02/18 11:17:38;;;;;;;2.25;0.80;;;;;;;18.58;48.72;102218.22;4998915;28;20127;-68
2024/02/18 11:20:04;;;;;;;4.85;1.42;;;;;;;18.74;48.46;102226.06;4996117;28;20029;-71